sensor_id;sensor_type;location;lat;lon;timestamp;P1;durP1;ratioP1;P2;durP2;ratioP2
15673;SDS011;7937;48.090;16.212;2022-09-14T00:00:12;1.50;;;1.40;;
15673;SDS011;7937;48.090;16.212;2022-09-14T00:03:15;1.40;;;1.30;;
15673;SDS011;7937;48.090;16.212;2022-09-14T00:06:17;1.50;;;1.40;;
15673;SDS011;7937;48.090;16.212;2022-09-14T00:09:20;1.70;;;1.43;;
15673;SDS011;7937;48.090;16.212;2022-09-14T00:12:24;1.77;;;1.67;;
15673;SDS011;7937;48.090;16.212;2022-09-14T00:15:26;2.20;;;1.63;;
15673;SDS011;7937;48.090;16.212;2022-09-14T00:18:28;1.50;;;1.40;;
15673;SDS011;7937;48.090;16.212;2022-09-14T00:21:31;1.70;;;1.60;;
15673;SDS011;7937;48.090;16.212;2022-09-14T00:24:38;3.97;;;1.40;;
15673;SDS011;7937;48.090;16.212;2022-09-14T00:27:40;1.60;;;1.50;;
15673;SDS011;7937;48.090;16.212;2022-09-14T00:30:42;2.10;;;1.70;;
15673;SDS011;7937;48.090;16.212;2022-09-14T00:33:44;1.60;;;1.50;;
15673;SDS011;7937;48.090;16.212;2022-09-14T00:36:51;3.37;;;1.43;;
15673;SDS011;7937;48.090;16.212;2022-09-14T00:39:53;1.67;;;1.50;;
15673;SDS011;7937;48.090;16.212;2022-09-14T00:42:55;2.40;;;1.40;;
15673;SDS011;7937;48.090;16.212;2022-09-14T00:45:59;1.93;;;1.03;;
15673;SDS011;7937;48.090;16.212;2022-09-14T00:49:04;2.57;;;1.43;;
15673;SDS011;7937;48.090;16.212;2022-09-14T00:55:11;1.97;;;1.73;;
15673;SDS011;7937;48.090;16.212;2022-09-14T00:58:16;1.57;;;1.40;;
15673;SDS011;7937;48.090;16.212;2022-09-14T01:04:52;1.40;;;1.30;;
15673;SDS011;7937;48.090;16.212;2022-09-14T01:11:56;3.73;;;1.63;;
15673;SDS011;7937;48.090;16.212;2022-09-14T01:15:15;2.47;;;1.50;;
15673;SDS011;7937;48.090;16.212;2022-09-14T01:21:29;1.80;;;1.40;;
15673;SDS011;7937;48.090;16.212;2022-09-14T01:27:42;2.63;;;1.70;;
15673;SDS011;7937;48.090;16.212;2022-09-14T01:30:46;2.17;;;1.50;;
15673;SDS011;7937;48.090;16.212;2022-09-14T01:33:52;1.97;;;1.80;;
15673;SDS011;7937;48.090;16.212;2022-09-14T01:37:04;2.23;;;1.50;;
15673;SDS011;7937;48.090;16.212;2022-09-14T01:40:21;2.07;;;1.53;;
15673;SDS011;7937;48.090;16.212;2022-09-14T01:43:36;1.60;;;1.50;;
15673;SDS011;7937;48.090;16.212;2022-09-14T01:46:43;1.60;;;1.47;;
15673;SDS011;7937;48.090;16.212;2022-09-14T01:50:00;5.50;;;1.40;;
15673;SDS011;7937;48.090;16.212;2022-09-14T01:53:13;1.70;;;1.60;;
15673;SDS011;7937;48.090;16.212;2022-09-14T01:56:23;2.17;;;1.60;;
15673;SDS011;7937;48.090;16.212;2022-09-14T01:59:35;1.60;;;1.50;;
15673;SDS011;7937;48.090;16.212;2022-09-14T02:02:41;3.50;;;1.70;;
15673;SDS011;7937;48.090;16.212;2022-09-14T02:05:56;2.70;;;1.40;;
15673;SDS011;7937;48.090;16.212;2022-09-14T02:09:04;2.03;;;1.50;;
15673;SDS011;7937;48.090;16.212;2022-09-14T02:12:08;1.80;;;1.60;;
15673;SDS011;7937;48.090;16.212;2022-09-14T02:15:12;3.07;;;1.37;;
15673;SDS011;7937;48.090;16.212;2022-09-14T02:18:15;3.63;;;1.40;;
15673;SDS011;7937;48.090;16.212;2022-09-14T02:21:19;3.27;;;1.30;;
15673;SDS011;7937;48.090;16.212;2022-09-14T02:24:26;1.37;;;1.27;;
15673;SDS011;7937;48.090;16.212;2022-09-14T02:27:28;1.40;;;1.30;;
15673;SDS011;7937;48.090;16.212;2022-09-14T02:30:32;1.37;;;1.27;;
15673;SDS011;7937;48.090;16.212;2022-09-14T02:41:25;1.67;;;1.50;;
15673;SDS011;7937;48.090;16.212;2022-09-14T02:48:12;3.13;;;1.50;;
15673;SDS011;7937;48.090;16.212;2022-09-14T02:51:30;1.53;;;1.33;;
15673;SDS011;7937;48.090;16.212;2022-09-14T02:55:02;1.90;;;1.30;;
15673;SDS011;7937;48.090;16.212;2022-09-14T02:58:09;1.50;;;1.40;;
15673;SDS011;7937;48.090;16.212;2022-09-14T03:01:17;2.77;;;1.30;;
15673;SDS011;7937;48.090;16.212;2022-09-14T03:04:20;3.93;;;1.50;;
15673;SDS011;7937;48.090;16.212;2022-09-14T03:07:23;1.93;;;1.30;;
15673;SDS011;7937;48.090;16.212;2022-09-14T03:10:25;1.73;;;1.33;;
15673;SDS011;7937;48.090;16.212;2022-09-14T03:13:28;2.17;;;1.10;;
15673;SDS011;7937;48.090;16.212;2022-09-14T03:16:30;1.23;;;1.13;;
15673;SDS011;7937;48.090;16.212;2022-09-14T03:19:32;2.33;;;1.40;;
15673;SDS011;7937;48.090;16.212;2022-09-14T03:22:34;2.33;;;1.50;;
15673;SDS011;7937;48.090;16.212;2022-09-14T03:25:37;1.47;;;1.33;;
15673;SDS011;7937;48.090;16.212;2022-09-14T03:28:40;2.03;;;1.60;;
15673;SDS011;7937;48.090;16.212;2022-09-14T03:31:43;1.90;;;1.37;;
15673;SDS011;7937;48.090;16.212;2022-09-14T03:34:45;1.67;;;1.57;;
15673;SDS011;7937;48.090;16.212;2022-09-14T03:37:47;1.83;;;1.63;;
15673;SDS011;7937;48.090;16.212;2022-09-14T03:40:49;2.27;;;1.40;;
15673;SDS011;7937;48.090;16.212;2022-09-14T03:43:51;2.53;;;1.63;;
15673;SDS011;7937;48.090;16.212;2022-09-14T03:46:53;1.67;;;1.50;;
15673;SDS011;7937;48.090;16.212;2022-09-14T03:49:55;2.03;;;1.30;;
15673;SDS011;7937;48.090;16.212;2022-09-14T03:52:57;1.40;;;1.30;;
15673;SDS011;7937;48.090;16.212;2022-09-14T03:56:00;2.47;;;1.53;;
15673;SDS011;7937;48.090;16.212;2022-09-14T03:59:02;1.63;;;1.53;;
15673;SDS011;7937;48.090;16.212;2022-09-14T04:02:04;1.53;;;1.20;;
15673;SDS011;7937;48.090;16.212;2022-09-14T04:05:06;1.60;;;1.50;;
15673;SDS011;7937;48.090;16.212;2022-09-14T04:08:08;1.50;;;1.40;;
15673;SDS011;7937;48.090;16.212;2022-09-14T04:11:12;2.97;;;1.50;;
15673;SDS011;7937;48.090;16.212;2022-09-14T04:14:17;2.57;;;1.50;;
15673;SDS011;7937;48.090;16.212;2022-09-14T04:17:19;2.43;;;1.40;;
15673;SDS011;7937;48.090;16.212;2022-09-14T04:20:21;1.67;;;1.50;;
15673;SDS011;7937;48.090;16.212;2022-09-14T04:23:23;1.97;;;1.40;;
15673;SDS011;7937;48.090;16.212;2022-09-14T04:26:26;2.77;;;1.67;;
15673;SDS011;7937;48.090;16.212;2022-09-14T04:29:29;2.40;;;1.57;;
15673;SDS011;7937;48.090;16.212;2022-09-14T04:32:32;1.70;;;1.33;;
15673;SDS011;7937;48.090;16.212;2022-09-14T04:35:35;1.40;;;1.30;;
15673;SDS011;7937;48.090;16.212;2022-09-14T04:38:38;3.37;;;1.30;;
15673;SDS011;7937;48.090;16.212;2022-09-14T04:41:41;1.73;;;1.50;;
15673;SDS011;7937;48.090;16.212;2022-09-14T04:44:43;2.27;;;1.63;;
15673;SDS011;7937;48.090;16.212;2022-09-14T04:47:46;1.67;;;1.30;;
15673;SDS011;7937;48.090;16.212;2022-09-14T04:50:48;1.47;;;1.37;;
15673;SDS011;7937;48.090;16.212;2022-09-14T04:53:50;1.67;;;1.37;;
15673;SDS011;7937;48.090;16.212;2022-09-14T04:56:54;1.70;;;1.60;;
15673;SDS011;7937;48.090;16.212;2022-09-14T04:59:57;2.73;;;1.63;;
15673;SDS011;7937;48.090;16.212;2022-09-14T05:02:59;1.63;;;1.53;;
15673;SDS011;7937;48.090;16.212;2022-09-14T05:06:01;3.13;;;1.30;;
15673;SDS011;7937;48.090;16.212;2022-09-14T05:09:05;2.57;;;1.47;;
15673;SDS011;7937;48.090;16.212;2022-09-14T05:12:08;4.03;;;1.20;;
15673;SDS011;7937;48.090;16.212;2022-09-14T05:15:10;1.90;;;1.33;;
15673;SDS011;7937;48.090;16.212;2022-09-14T05:18:12;1.90;;;1.70;;
15673;SDS011;7937;48.090;16.212;2022-09-14T05:21:15;1.93;;;1.40;;
15673;SDS011;7937;48.090;16.212;2022-09-14T05:24:19;3.50;;;1.50;;
15673;SDS011;7937;48.090;16.212;2022-09-14T05:27:21;1.50;;;1.40;;
15673;SDS011;7937;48.090;16.212;2022-09-14T05:30:23;2.30;;;1.57;;
15673;SDS011;7937;48.090;16.212;2022-09-14T05:33:25;1.47;;;1.37;;
15673;SDS011;7937;48.090;16.212;2022-09-14T05:36:27;1.60;;;1.50;;
15673;SDS011;7937;48.090;16.212;2022-09-14T05:39:29;1.60;;;1.50;;
15673;SDS011;7937;48.090;16.212;2022-09-14T05:42:31;1.57;;;1.47;;
15673;SDS011;7937;48.090;16.212;2022-09-14T05:45:33;1.67;;;1.53;;
15673;SDS011;7937;48.090;16.212;2022-09-14T05:48:36;1.40;;;1.30;;
15673;SDS011;7937;48.090;16.212;2022-09-14T05:51:39;1.97;;;1.73;;
15673;SDS011;7937;48.090;16.212;2022-09-14T05:54:41;3.03;;;1.90;;
15673;SDS011;7937;48.090;16.212;2022-09-14T05:57:47;1.63;;;1.53;;
15673;SDS011;7937;48.090;16.212;2022-09-14T06:00:50;2.27;;;1.60;;
15673;SDS011;7937;48.090;16.212;2022-09-14T06:03:53;2.37;;;1.83;;
15673;SDS011;7937;48.090;16.212;2022-09-14T06:06:56;4.03;;;1.90;;
15673;SDS011;7937;48.090;16.212;2022-09-14T06:10:19;3.20;;;1.70;;
15673;SDS011;7937;48.090;16.212;2022-09-14T06:13:21;1.90;;;1.80;;
15673;SDS011;7937;48.090;16.212;2022-09-14T06:16:24;1.60;;;1.50;;
15673;SDS011;7937;48.090;16.212;2022-09-14T06:19:27;2.30;;;1.80;;
15673;SDS011;7937;48.090;16.212;2022-09-14T06:22:30;2.37;;;1.60;;
15673;SDS011;7937;48.090;16.212;2022-09-14T06:25:32;1.43;;;1.33;;
15673;SDS011;7937;48.090;16.212;2022-09-14T06:28:34;1.60;;;1.50;;
15673;SDS011;7937;48.090;16.212;2022-09-14T06:31:37;2.67;;;1.60;;
15673;SDS011;7937;48.090;16.212;2022-09-14T06:34:39;2.03;;;1.57;;
15673;SDS011;7937;48.090;16.212;2022-09-14T06:37:41;1.70;;;1.60;;
15673;SDS011;7937;48.090;16.212;2022-09-14T06:40:55;1.80;;;1.70;;
15673;SDS011;7937;48.090;16.212;2022-09-14T06:43:59;1.70;;;1.60;;
15673;SDS011;7937;48.090;16.212;2022-09-14T06:47:04;2.03;;;1.80;;
15673;SDS011;7937;48.090;16.212;2022-09-14T06:50:07;1.80;;;1.70;;
15673;SDS011;7937;48.090;16.212;2022-09-14T06:53:09;1.87;;;1.77;;
15673;SDS011;7937;48.090;16.212;2022-09-14T06:56:11;1.60;;;1.50;;
15673;SDS011;7937;48.090;16.212;2022-09-14T06:59:14;1.70;;;1.60;;
15673;SDS011;7937;48.090;16.212;2022-09-14T07:02:18;1.50;;;1.40;;
15673;SDS011;7937;48.090;16.212;2022-09-14T07:05:20;2.83;;;1.80;;
15673;SDS011;7937;48.090;16.212;2022-09-14T07:08:23;1.70;;;1.60;;
15673;SDS011;7937;48.090;16.212;2022-09-14T07:11:29;1.70;;;1.60;;
15673;SDS011;7937;48.090;16.212;2022-09-14T07:14:32;2.00;;;1.90;;
15673;SDS011;7937;48.090;16.212;2022-09-14T07:17:34;1.90;;;1.70;;
15673;SDS011;7937;48.090;16.212;2022-09-14T07:20:37;2.13;;;1.60;;
15673;SDS011;7937;48.090;16.212;2022-09-14T07:23:39;1.43;;;1.33;;
15673;SDS011;7937;48.090;16.212;2022-09-14T07:26:42;2.50;;;1.93;;
15673;SDS011;7937;48.090;16.212;2022-09-14T07:29:45;1.80;;;1.70;;
15673;SDS011;7937;48.090;16.212;2022-09-14T07:32:48;2.23;;;1.90;;
15673;SDS011;7937;48.090;16.212;2022-09-14T07:35:50;2.07;;;1.40;;
15673;SDS011;7937;48.090;16.212;2022-09-14T07:38:53;1.73;;;1.63;;
15673;SDS011;7937;48.090;16.212;2022-09-14T07:41:56;1.70;;;1.60;;
15673;SDS011;7937;48.090;16.212;2022-09-14T07:44:58;1.70;;;1.60;;
15673;SDS011;7937;48.090;16.212;2022-09-14T07:48:00;1.80;;;1.70;;
15673;SDS011;7937;48.090;16.212;2022-09-14T07:51:03;2.37;;;1.50;;
15673;SDS011;7937;48.090;16.212;2022-09-14T07:54:09;1.80;;;1.60;;
15673;SDS011;7937;48.090;16.212;2022-09-14T07:57:13;1.53;;;1.43;;
15673;SDS011;7937;48.090;16.212;2022-09-14T08:00:16;2.50;;;1.80;;
15673;SDS011;7937;48.090;16.212;2022-09-14T08:03:18;2.60;;;1.77;;
15673;SDS011;7937;48.090;16.212;2022-09-14T08:06:21;2.73;;;1.70;;
15673;SDS011;7937;48.090;16.212;2022-09-14T08:09:25;1.50;;;1.37;;
15673;SDS011;7937;48.090;16.212;2022-09-14T08:12:28;1.57;;;1.47;;
15673;SDS011;7937;48.090;16.212;2022-09-14T08:15:30;1.43;;;1.33;;
15673;SDS011;7937;48.090;16.212;2022-09-14T08:18:32;1.70;;;1.50;;
15673;SDS011;7937;48.090;16.212;2022-09-14T08:21:36;1.43;;;1.33;;
15673;SDS011;7937;48.090;16.212;2022-09-14T08:24:43;1.57;;;1.30;;
15673;SDS011;7937;48.090;16.212;2022-09-14T08:27:45;1.20;;;1.10;;
15673;SDS011;7937;48.090;16.212;2022-09-14T08:30:47;1.60;;;1.20;;
15673;SDS011;7937;48.090;16.212;2022-09-14T08:33:50;1.73;;;1.43;;
15673;SDS011;7937;48.090;16.212;2022-09-14T08:36:53;1.40;;;1.27;;
15673;SDS011;7937;48.090;16.212;2022-09-14T08:39:55;2.10;;;1.30;;
15673;SDS011;7937;48.090;16.212;2022-09-14T08:42:58;5.40;;;1.40;;
15673;SDS011;7937;48.090;16.212;2022-09-14T08:46:04;5.50;;;1.80;;
15673;SDS011;7937;48.090;16.212;2022-09-14T08:49:14;1.90;;;1.80;;
15673;SDS011;7937;48.090;16.212;2022-09-14T08:55:52;3.50;;;1.70;;
15673;SDS011;7937;48.090;16.212;2022-09-14T09:02:22;2.00;;;1.60;;
15673;SDS011;7937;48.090;16.212;2022-09-14T09:05:37;2.30;;;1.63;;
15673;SDS011;7937;48.090;16.212;2022-09-14T09:12:11;3.03;;;2.30;;
15673;SDS011;7937;48.090;16.212;2022-09-14T09:15:19;2.70;;;2.00;;
15673;SDS011;7937;48.090;16.212;2022-09-14T09:18:39;3.07;;;2.00;;
15673;SDS011;7937;48.090;16.212;2022-09-14T09:21:42;5.20;;;2.70;;
15673;SDS011;7937;48.090;16.212;2022-09-14T09:24:50;3.83;;;2.50;;
15673;SDS011;7937;48.090;16.212;2022-09-14T09:28:01;3.17;;;2.20;;
15673;SDS011;7937;48.090;16.212;2022-09-14T09:31:11;1.97;;;1.77;;
15673;SDS011;7937;48.090;16.212;2022-09-14T09:34:49;3.07;;;2.20;;
15673;SDS011;7937;48.090;16.212;2022-09-14T09:38:16;2.50;;;2.30;;
15673;SDS011;7937;48.090;16.212;2022-09-14T09:41:26;2.73;;;2.40;;
15673;SDS011;7937;48.090;16.212;2022-09-14T09:45:13;4.13;;;2.53;;
15673;SDS011;7937;48.090;16.212;2022-09-14T09:48:10;4.20;;;2.30;;
15673;SDS011;7937;48.090;16.212;2022-09-14T09:51:13;6.77;;;3.50;;
15673;SDS011;7937;48.090;16.212;2022-09-14T09:54:23;4.27;;;3.03;;
15673;SDS011;7937;48.090;16.212;2022-09-14T09:57:28;3.10;;;2.77;;
15673;SDS011;7937;48.090;16.212;2022-09-14T10:00:32;3.10;;;2.73;;
15673;SDS011;7937;48.090;16.212;2022-09-14T10:03:36;2.80;;;2.27;;
15673;SDS011;7937;48.090;16.212;2022-09-14T10:06:42;4.97;;;2.37;;
15673;SDS011;7937;48.090;16.212;2022-09-14T10:09:46;2.37;;;2.17;;
15673;SDS011;7937;48.090;16.212;2022-09-14T10:13:15;4.07;;;2.20;;
15673;SDS011;7937;48.090;16.212;2022-09-14T10:16:39;2.17;;;1.97;;
15673;SDS011;7937;48.090;16.212;2022-09-14T10:19:49;3.47;;;2.07;;
15673;SDS011;7937;48.090;16.212;2022-09-14T10:22:53;2.17;;;1.97;;
15673;SDS011;7937;48.090;16.212;2022-09-14T10:32:39;2.67;;;2.40;;
15673;SDS011;7937;48.090;16.212;2022-09-14T10:35:50;2.57;;;2.33;;
15673;SDS011;7937;48.090;16.212;2022-09-14T10:42:25;2.50;;;2.27;;
15673;SDS011;7937;48.090;16.212;2022-09-14T10:45:39;2.40;;;2.10;;
15673;SDS011;7937;48.090;16.212;2022-09-14T10:52:41;2.93;;;2.40;;
15673;SDS011;7937;48.090;16.212;2022-09-14T10:56:01;3.00;;;2.00;;
15673;SDS011;7937;48.090;16.212;2022-09-14T11:02:47;2.50;;;2.17;;
15673;SDS011;7937;48.090;16.212;2022-09-14T11:06:04;2.30;;;2.10;;
15673;SDS011;7937;48.090;16.212;2022-09-14T11:09:34;3.10;;;2.10;;
15673;SDS011;7937;48.090;16.212;2022-09-14T11:19:52;5.00;;;2.30;;
15673;SDS011;7937;48.090;16.212;2022-09-14T11:23:02;5.00;;;1.97;;
15673;SDS011;7937;48.090;16.212;2022-09-14T11:29:34;3.47;;;1.90;;
15673;SDS011;7937;48.090;16.212;2022-09-14T11:32:56;3.37;;;2.30;;
15673;SDS011;7937;48.090;16.212;2022-09-14T11:36:31;2.80;;;2.40;;
15673;SDS011;7937;48.090;16.212;2022-09-14T11:39:40;2.43;;;2.23;;
15673;SDS011;7937;48.090;16.212;2022-09-14T11:42:54;2.57;;;2.10;;
15673;SDS011;7937;48.090;16.212;2022-09-14T11:46:07;2.43;;;2.23;;
15673;SDS011;7937;48.090;16.212;2022-09-14T11:52:21;2.60;;;2.23;;
15673;SDS011;7937;48.090;16.212;2022-09-14T11:55:25;2.53;;;2.33;;
15673;SDS011;7937;48.090;16.212;2022-09-14T11:58:27;4.63;;;2.60;;
15673;SDS011;7937;48.090;16.212;2022-09-14T12:01:51;3.27;;;2.47;;
15673;SDS011;7937;48.090;16.212;2022-09-14T12:11:25;2.57;;;2.37;;
15673;SDS011;7937;48.090;16.212;2022-09-14T12:14:33;2.30;;;2.10;;
15673;SDS011;7937;48.090;16.212;2022-09-14T12:17:37;2.73;;;2.50;;
15673;SDS011;7937;48.090;16.212;2022-09-14T12:24:12;2.77;;;2.37;;
15673;SDS011;7937;48.090;16.212;2022-09-14T12:27:21;3.27;;;2.13;;
15673;SDS011;7937;48.090;16.212;2022-09-14T12:33:42;2.33;;;2.13;;
15673;SDS011;7937;48.090;16.212;2022-09-14T12:46:37;4.28;;;2.15;;
15673;SDS011;7937;48.090;16.212;2022-09-14T12:49:40;3.30;;;2.25;;
15673;SDS011;7937;48.090;16.212;2022-09-14T12:56:27;4.22;;;2.35;;
15673;SDS011;7937;48.090;16.212;2022-09-14T12:59:39;4.07;;;2.35;;
15673;SDS011;7937;48.090;16.212;2022-09-14T13:03:05;3.65;;;2.42;;
15673;SDS011;7937;48.090;16.212;2022-09-14T13:06:33;3.22;;;2.50;;
15673;SDS011;7937;48.090;16.212;2022-09-14T13:09:45;3.83;;;2.58;;
15673;SDS011;7937;48.090;16.212;2022-09-14T13:12:50;3.25;;;2.33;;
15673;SDS011;7937;48.090;16.212;2022-09-14T13:15:54;3.65;;;2.42;;
15673;SDS011;7937;48.090;16.212;2022-09-14T13:19:00;3.83;;;2.50;;
15673;SDS011;7937;48.090;16.212;2022-09-14T13:22:15;2.60;;;2.25;;
15673;SDS011;7937;48.090;16.212;2022-09-14T13:25:33;2.88;;;2.20;;
15673;SDS011;7937;48.090;16.212;2022-09-14T13:28:37;4.22;;;2.22;;
15673;SDS011;7937;48.090;16.212;2022-09-14T13:31:43;2.97;;;2.15;;
15673;SDS011;7937;48.090;16.212;2022-09-14T13:34:46;3.08;;;2.22;;
15673;SDS011;7937;48.090;16.212;2022-09-14T13:37:48;4.38;;;2.38;;
15673;SDS011;7937;48.090;16.212;2022-09-14T13:40:51;2.63;;;2.30;;
15673;SDS011;7937;48.090;16.212;2022-09-14T13:43:56;5.68;;;2.55;;
15673;SDS011;7937;48.090;16.212;2022-09-14T13:47:00;2.28;;;2.10;;
15673;SDS011;7937;48.090;16.212;2022-09-14T13:50:04;5.80;;;2.67;;
15673;SDS011;7937;48.090;16.212;2022-09-14T13:56:38;3.03;;;2.72;;
15673;SDS011;7937;48.090;16.212;2022-09-14T14:06:26;3.17;;;2.55;;
15673;SDS011;7937;48.090;16.212;2022-09-14T14:09:40;3.00;;;2.42;;
15673;SDS011;7937;48.090;16.212;2022-09-14T14:12:56;2.58;;;2.38;;
15673;SDS011;7937;48.090;16.212;2022-09-14T14:16:11;3.63;;;2.80;;
15673;SDS011;7937;48.090;16.212;2022-09-14T14:19:25;3.22;;;2.40;;
15673;SDS011;7937;48.090;16.212;2022-09-14T14:22:31;3.10;;;2.30;;
15673;SDS011;7937;48.090;16.212;2022-09-14T14:25:38;3.30;;;2.20;;
15673;SDS011;7937;48.090;16.212;2022-09-14T14:28:48;6.78;;;2.25;;
15673;SDS011;7937;48.090;16.212;2022-09-14T14:31:50;2.60;;;2.40;;
15673;SDS011;7937;48.090;16.212;2022-09-14T14:34:54;2.20;;;2.00;;
15673;SDS011;7937;48.090;16.212;2022-09-14T14:37:57;3.10;;;1.92;;
15673;SDS011;7937;48.090;16.212;2022-09-14T14:40:59;2.65;;;2.00;;
15673;SDS011;7937;48.090;16.212;2022-09-14T14:44:02;5.50;;;2.83;;
15673;SDS011;7937;48.090;16.212;2022-09-14T14:47:04;2.33;;;2.13;;
15673;SDS011;7937;48.090;16.212;2022-09-14T14:50:18;2.47;;;2.28;;
15673;SDS011;7937;48.090;16.212;2022-09-14T14:53:23;2.85;;;2.30;;
15673;SDS011;7937;48.090;16.212;2022-09-14T14:56:26;3.15;;;1.88;;
15673;SDS011;7937;48.090;16.212;2022-09-14T14:59:28;5.57;;;2.47;;
15673;SDS011;7937;48.090;16.212;2022-09-14T15:02:31;2.60;;;2.40;;
15673;SDS011;7937;48.090;16.212;2022-09-14T15:05:33;3.63;;;2.40;;
15673;SDS011;7937;48.090;16.212;2022-09-14T15:08:36;4.80;;;2.47;;
15673;SDS011;7937;48.090;16.212;2022-09-14T15:11:38;5.07;;;2.40;;
15673;SDS011;7937;48.090;16.212;2022-09-14T15:14:41;5.93;;;2.80;;
15673;SDS011;7937;48.090;16.212;2022-09-14T15:17:43;3.13;;;2.35;;
15673;SDS011;7937;48.090;16.212;2022-09-14T15:20:45;3.13;;;2.25;;
15673;SDS011;7937;48.090;16.212;2022-09-14T15:23:47;7.85;;;3.05;;
15673;SDS011;7937;48.090;16.212;2022-09-14T15:26:50;3.60;;;2.08;;
15673;SDS011;7937;48.090;16.212;2022-09-14T15:29:53;5.07;;;2.40;;
15673;SDS011;7937;48.090;16.212;2022-09-14T15:32:55;3.80;;;2.10;;
15673;SDS011;7937;48.090;16.212;2022-09-14T15:35:57;3.90;;;2.83;;
15673;SDS011;7937;48.090;16.212;2022-09-14T15:39:00;4.90;;;2.30;;
15673;SDS011;7937;48.090;16.212;2022-09-14T15:42:02;3.42;;;2.40;;
15673;SDS011;7937;48.090;16.212;2022-09-14T15:45:04;6.07;;;2.60;;
15673;SDS011;7937;48.090;16.212;2022-09-14T15:48:10;5.10;;;2.70;;
15673;SDS011;7937;48.090;16.212;2022-09-14T15:51:16;5.33;;;2.83;;
15673;SDS011;7937;48.090;16.212;2022-09-14T15:54:21;2.60;;;2.37;;
15673;SDS011;7937;48.090;16.212;2022-09-14T15:57:25;7.97;;;2.43;;
15673;SDS011;7937;48.090;16.212;2022-09-14T16:00:28;3.77;;;2.53;;
15673;SDS011;7937;48.090;16.212;2022-09-14T16:03:30;4.83;;;2.37;;
15673;SDS011;7937;48.090;16.212;2022-09-14T16:06:32;4.23;;;2.10;;
15673;SDS011;7937;48.090;16.212;2022-09-14T16:09:38;2.83;;;2.07;;
15673;SDS011;7937;48.090;16.212;2022-09-14T16:12:41;5.30;;;2.50;;
15673;SDS011;7937;48.090;16.212;2022-09-14T16:15:43;5.13;;;2.67;;
15673;SDS011;7937;48.090;16.212;2022-09-14T16:18:46;3.50;;;2.30;;
15673;SDS011;7937;48.090;16.212;2022-09-14T16:21:50;6.30;;;2.43;;
15673;SDS011;7937;48.090;16.212;2022-09-14T16:24:54;4.23;;;1.93;;
15673;SDS011;7937;48.090;16.212;2022-09-14T16:27:56;2.30;;;2.10;;
15673;SDS011;7937;48.090;16.212;2022-09-14T16:31:05;2.63;;;2.43;;
15673;SDS011;7937;48.090;16.212;2022-09-14T16:34:16;2.87;;;2.20;;
15673;SDS011;7937;48.090;16.212;2022-09-14T16:37:18;2.90;;;2.40;;
15673;SDS011;7937;48.090;16.212;2022-09-14T16:40:20;3.40;;;2.50;;
15673;SDS011;7937;48.090;16.212;2022-09-14T16:43:22;4.33;;;2.60;;
15673;SDS011;7937;48.090;16.212;2022-09-14T16:46:27;4.07;;;2.33;;
15673;SDS011;7937;48.090;16.212;2022-09-14T16:49:30;3.67;;;2.30;;
15673;SDS011;7937;48.090;16.212;2022-09-14T16:52:32;4.20;;;2.27;;
15673;SDS011;7937;48.090;16.212;2022-09-14T16:55:34;5.23;;;2.40;;
15673;SDS011;7937;48.090;16.212;2022-09-14T16:58:36;4.27;;;2.90;;
15673;SDS011;7937;48.090;16.212;2022-09-14T17:01:54;5.70;;;2.80;;
15673;SDS011;7937;48.090;16.212;2022-09-14T17:04:56;4.53;;;2.90;;
15673;SDS011;7937;48.090;16.212;2022-09-14T17:07:58;3.33;;;3.03;;
15673;SDS011;7937;48.090;16.212;2022-09-14T17:11:01;4.60;;;2.90;;
15673;SDS011;7937;48.090;16.212;2022-09-14T17:14:07;4.83;;;2.67;;
15673;SDS011;7937;48.090;16.212;2022-09-14T17:17:15;3.27;;;2.80;;
15673;SDS011;7937;48.090;16.212;2022-09-14T17:20:17;3.60;;;3.10;;
15673;SDS011;7937;48.090;16.212;2022-09-14T17:23:19;3.27;;;2.93;;
15673;SDS011;7937;48.090;16.212;2022-09-14T17:26:21;4.47;;;2.70;;
15673;SDS011;7937;48.090;16.212;2022-09-14T17:29:24;6.63;;;3.67;;
15673;SDS011;7937;48.090;16.212;2022-09-14T17:32:26;5.37;;;3.23;;
15673;SDS011;7937;48.090;16.212;2022-09-14T17:35:28;3.73;;;3.03;;
15673;SDS011;7937;48.090;16.212;2022-09-14T17:38:31;6.00;;;3.00;;
15673;SDS011;7937;48.090;16.212;2022-09-14T17:41:35;3.83;;;3.00;;
15673;SDS011;7937;48.090;16.212;2022-09-14T17:44:39;5.70;;;2.90;;
15673;SDS011;7937;48.090;16.212;2022-09-14T17:47:41;3.40;;;2.80;;
15673;SDS011;7937;48.090;16.212;2022-09-14T17:50:43;4.50;;;3.23;;
15673;SDS011;7937;48.090;16.212;2022-09-14T17:53:46;3.13;;;2.90;;
15673;SDS011;7937;48.090;16.212;2022-09-14T17:56:49;4.00;;;3.20;;
15673;SDS011;7937;48.090;16.212;2022-09-14T17:59:51;2.63;;;2.40;;
15673;SDS011;7937;48.090;16.212;2022-09-14T18:02:54;3.87;;;2.70;;
15673;SDS011;7937;48.090;16.212;2022-09-14T18:05:56;3.20;;;2.90;;
15673;SDS011;7937;48.090;16.212;2022-09-14T18:08:59;4.03;;;3.00;;
15673;SDS011;7937;48.090;16.212;2022-09-14T18:12:04;3.10;;;2.80;;
15673;SDS011;7937;48.090;16.212;2022-09-14T18:15:07;4.47;;;3.13;;
15673;SDS011;7937;48.090;16.212;2022-09-14T18:18:10;3.40;;;3.03;;
15673;SDS011;7937;48.090;16.212;2022-09-14T18:21:12;3.10;;;2.77;;
15673;SDS011;7937;48.090;16.212;2022-09-14T18:24:16;3.70;;;2.67;;
15673;SDS011;7937;48.090;16.212;2022-09-14T18:27:19;3.37;;;3.07;;
15673;SDS011;7937;48.090;16.212;2022-09-14T18:30:21;3.67;;;2.80;;
15673;SDS011;7937;48.090;16.212;2022-09-14T18:33:23;5.03;;;2.90;;
15673;SDS011;7937;48.090;16.212;2022-09-14T18:36:26;3.10;;;2.83;;
15673;SDS011;7937;48.090;16.212;2022-09-14T18:39:30;3.30;;;3.00;;
15673;SDS011;7937;48.090;16.212;2022-09-14T18:42:32;3.50;;;3.20;;
15673;SDS011;7937;48.090;16.212;2022-09-14T18:45:35;4.73;;;2.83;;
15673;SDS011;7937;48.090;16.212;2022-09-14T18:48:38;2.97;;;2.77;;
15673;SDS011;7937;48.090;16.212;2022-09-14T18:51:41;3.17;;;2.80;;
15673;SDS011;7937;48.090;16.212;2022-09-14T18:54:44;3.13;;;2.57;;
15673;SDS011;7937;48.090;16.212;2022-09-14T18:57:47;3.07;;;2.77;;
15673;SDS011;7937;48.090;16.212;2022-09-14T19:00:50;3.07;;;2.77;;
15673;SDS011;7937;48.090;16.212;2022-09-14T19:03:53;2.97;;;2.50;;
15673;SDS011;7937;48.090;16.212;2022-09-14T19:06:57;4.90;;;3.13;;
15673;SDS011;7937;48.090;16.212;2022-09-14T19:09:59;3.53;;;2.70;;
15673;SDS011;7937;48.090;16.212;2022-09-14T19:13:02;2.57;;;2.37;;
15673;SDS011;7937;48.090;16.212;2022-09-14T19:16:06;5.07;;;3.10;;
15673;SDS011;7937;48.090;16.212;2022-09-14T19:19:10;3.20;;;2.90;;
15673;SDS011;7937;48.090;16.212;2022-09-14T19:22:15;3.50;;;2.87;;
15673;SDS011;7937;48.090;16.212;2022-09-14T19:25:18;4.23;;;2.70;;
15673;SDS011;7937;48.090;16.212;2022-09-14T19:28:21;2.90;;;2.60;;
15673;SDS011;7937;48.090;16.212;2022-09-14T19:31:23;2.53;;;2.33;;
15673;SDS011;7937;48.090;16.212;2022-09-14T19:34:26;7.30;;;3.23;;
15673;SDS011;7937;48.090;16.212;2022-09-14T19:37:30;4.37;;;3.40;;
15673;SDS011;7937;48.090;16.212;2022-09-14T19:40:32;6.43;;;3.77;;
15673;SDS011;7937;48.090;16.212;2022-09-14T19:43:35;4.90;;;3.67;;
15673;SDS011;7937;48.090;16.212;2022-09-14T19:46:38;9.27;;;5.60;;
15673;SDS011;7937;48.090;16.212;2022-09-14T19:49:41;5.90;;;5.30;;
15673;SDS011;7937;48.090;16.212;2022-09-14T19:52:43;7.40;;;5.07;;
15673;SDS011;7937;48.090;16.212;2022-09-14T19:55:45;8.17;;;4.87;;
15673;SDS011;7937;48.090;16.212;2022-09-14T19:58:48;8.80;;;4.60;;
15673;SDS011;7937;48.090;16.212;2022-09-14T20:01:52;4.07;;;2.97;;
15673;SDS011;7937;48.090;16.212;2022-09-14T20:04:54;5.53;;;2.87;;
15673;SDS011;7937;48.090;16.212;2022-09-14T20:07:57;7.30;;;2.90;;
15673;SDS011;7937;48.090;16.212;2022-09-14T20:11:05;3.00;;;2.00;;
15673;SDS011;7937;48.090;16.212;2022-09-14T20:14:10;3.00;;;1.80;;
15673;SDS011;7937;48.090;16.212;2022-09-14T20:17:14;4.07;;;1.50;;
15673;SDS011;7937;48.090;16.212;2022-09-14T20:20:16;1.60;;;1.30;;
15673;SDS011;7937;48.090;16.212;2022-09-14T20:23:18;2.03;;;1.40;;